Time;durP1;ratioP1;P1;durP2;ratioP2;P2;SDS_P1;SDS_P2;PMS_P1;PMS_P2;Temp;Humidity;BMP_temperature;BMP_pressure;BME280_temperature;BME280_humidity;BME280_pressure;Samples;Min_cycle;Max_cycle;Signal;HPM_P1;HPM_P2
2022/09/21 00:01:53;;;;;;;7.90;3.10;;;;;;;14.30;99.68;99835.53;5002188;28;20038;-86
2022/09/21 00:04:19;;;;;;;4.18;2.90;;;;;;;14.29;99.47;99836.50;5002769;28;20559;-88
2022/09/21 00:06:44;;;;;;;3.63;2.50;;;;;;;14.22;100.00;99834.66;5011855;28;20041;-87
2022/09/21 00:09:10;;;;;;;3.53;2.30;;;;;;;14.16;99.89;99838.75;5010112;28;20479;-85
2022/09/21 00:11:36;;;;;;;4.45;2.30;;;;;;;14.15;100.00;99839.75;4984303;28;20407;-84
2022/09/21 00:14:06;;;;;;;5.18;2.42;;;;;;;14.17;100.00;99847.56;5003818;28;20409;-85
2022/09/21 00:16:32;;;;;;;4.50;2.33;;;;;;;14.16;100.00;99849.38;5008864;28;20037;-83
2022/09/21 00:18:59;;;;;;;3.10;2.60;;;;;;;14.13;99.99;99852.38;5005706;28;20025;-85
2022/09/21 00:21:26;;;;;;;3.08;2.67;;;;;;;14.16;100.00;99849.38;5000363;28;20044;-83
2022/09/21 00:23:53;;;;;;;5.05;3.00;;;;;;;14.20;100.00;99853.38;5003566;28;20066;-83
2022/09/21 00:26:24;;;;;;;4.20;2.50;;;;;;;14.27;99.83;99854.41;5006304;28;20432;-84
2022/09/21 00:28:55;;;;;;;6.00;2.42;;;;;;;14.28;99.82;99855.25;4985355;28;20426;-83
2022/09/21 00:31:20;;;;;;;;;;;;;;;14.25;99.54;99856.41;5002535;28;20438;-84
2022/09/21 00:33:46;;;;;;;4.03;2.28;;;;;;;14.26;99.59;99863.34;5000396;28;19924;-83
2022/09/21 00:36:14;;;;;;;6.35;2.72;;;;;;;14.25;99.45;99856.41;5002360;28;20554;-85
2022/09/21 00:38:40;;;;;;;6.38;2.75;;;;;;;14.23;99.53;99862.84;5002803;28;20328;-84
2022/09/21 00:41:07;;;;;;;3.00;2.40;;;;;;;14.18;100.00;99863.34;5003461;28;20056;-84
2022/09/21 00:43:35;;;;;;;4.03;2.35;;;;;;;14.12;99.97;99871.09;5001938;28;20046;-87
2022/09/21 00:46:13;;;;;;;4.82;2.75;;;;;;;13.87;100.00;99872.75;5006736;28;20030;-83
2022/09/21 00:48:39;;;;;;;5.40;2.40;;;;;;;13.72;100.00;99869.03;5001584;28;20080;-83
2022/09/21 00:51:06;;;;;;;8.02;2.35;;;;;;;13.72;100.00;99866.38;5004525;28;20153;-83
2022/09/21 00:53:33;;;;;;;3.00;2.10;;;;;;;13.75;100.00;99874.00;5001283;28;20050;-81
2022/09/21 00:56:01;;;;;;;5.15;2.70;;;;;;;13.76;100.00;99865.06;4985732;28;20108;-85
2022/09/21 00:58:32;;;;;;;3.83;2.63;;;;;;;13.68;100.00;99865.00;4996998;28;20092;-83
2022/09/21 01:00:58;;;;;;;;;;;;;;;13.63;100.00;99868.13;5002095;28;20045;-84
2022/09/21 01:03:24;;;;;;;3.25;2.25;;;;;;;13.64;100.00;99871.59;5000540;28;20374;-83
2022/09/21 01:05:50;;;;;;;6.45;2.20;;;;;;;13.68;100.00;99875.59;5001921;28;20102;-85
2022/09/21 01:08:17;;;;;;;2.80;2.35;;;;;;;13.74;100.00;99872.34;5003745;28;20442;-84
2022/09/21 01:11:07;;;;;;;4.15;2.30;;;;;;;13.80;100.00;99872.56;5007674;28;20101;-84
2022/09/21 01:13:38;;;;;;;5.38;3.10;;;;;;;13.87;100.00;99872.75;4982134;28;20504;-85
2022/09/21 01:16:16;;;;;;;3.25;2.30;;;;;;;13.85;100.00;99872.91;4998527;28;20034;-83
2022/09/21 01:18:57;;;;;;;3.35;2.63;;;;;;;13.78;100.00;99885.13;5005164;28;20387;-86
2022/09/21 01:21:29;;;;;;;;;;;;;;;13.68;100.00;99883.56;5004110;28;20065;-85
2022/09/21 01:24:08;;;;;;;;;;;;;;;13.58;100.00;99888.13;5000625;28;19933;-87
2022/09/21 01:26:49;;;;;;;;;;;;;;;13.56;100.00;99884.78;5003201;28;19918;-87
2022/09/21 01:29:20;;;;;;;;;;;;;;;13.56;100.00;99879.50;5001361;28;20020;-88
2022/09/21 01:32:05;;;;;;;;;;;;;;;13.50;100.00;99880.94;5000704;28;19921;-89
2022/09/21 01:34:30;;;;;;;;;;;;;;;13.42;100.00;99884.38;4999879;28;19996;-86
2022/09/21 01:36:59;;;;;;;;;;;;;;;13.40;100.00;99891.63;4999595;28;20004;-87
2022/09/21 01:39:25;;;;;;;;;;;;;;;13.40;100.00;99880.19;5003224;28;19968;-86
2022/09/21 01:41:51;;;;;;;;;;;;;;;13.41;100.00;99895.97;5003937;28;19951;-84
2022/09/21 01:44:19;;;;;;;;;;;;;;;13.44;100.00;99895.63;5003087;28;19918;-84
2022/09/21 01:46:45;;;;;;;;;;;;;;;13.43;100.00;99895.81;5002347;28;20362;-86
2022/09/21 01:49:14;;;;;;;;;;;;;;;13.40;100.00;99896.94;4998089;28;20052;-81
2022/09/21 01:51:50;;;;;;;;;;;;;;;13.35;100.00;99899.22;4984935;28;19944;-83
2022/09/21 01:54:29;;;;;;;;;;;;;;;13.28;100.00;99900.81;4996570;28;19918;-83
2022/09/21 01:57:05;;;;;;;;;;;;;;;13.22;100.00;99904.06;5001803;28;20135;-82
2022/09/21 01:59:34;;;;;;;;;;;;;;;13.20;100.00;99906.00;4999596;28;19925;-83
2022/09/21 02:02:03;;;;;;;;;;;;;;;13.23;100.00;99900.44;5000303;28;19926;-84
2022/09/21 02:04:29;;;;;;;;;;;;;;;13.07;100.00;99906.38;5000048;28;20028;-83
2022/09/21 02:06:54;;;;;;;;;;;;;;;12.90;100.00;99904.50;5004624;28;19956;-82
2022/09/21 02:09:20;;;;;;;;;;;;;;;12.81;100.00;99909.88;5002476;28;19933;-83
2022/09/21 02:11:45;;;;;;;;;;;;;;;12.82;100.00;99908.91;5002890;28;20692;-83
2022/09/21 02:14:12;;;;;;;;;;;;;;;12.89;100.00;99902.03;5000902;28;20016;-83
2022/09/21 02:16:41;;;;;;;;;;;;;;;12.99;100.00;99916.03;5001196;28;19917;-84
2022/09/21 02:19:10;;;;;;;;;;;;;;;13.07;100.00;99916.16;5004513;28;19917;-83
2022/09/21 02:21:54;;;;;;;;;;;;;;;13.09;100.00;99914.16;5002146;28;19922;-84
2022/09/21 02:24:22;;;;;;;;;;;;;;;13.16;100.00;99925.03;4982045;28;19924;-82
2022/09/21 02:26:52;;;;;;;;;;;;;;;13.19;100.00;99916.78;5005839;28;20694;-87
2022/09/21 02:29:23;;;;;;;;;;;;;;;13.18;100.00;99918.59;5004071;28;20004;-86
2022/09/21 02:31:56;;;;;;;;;;;;;;;13.12;100.00;99919.19;5006649;28;20321;-80
2022/09/21 02:34:32;;;;;;;;;;;;;;;13.06;100.00;99919.75;5006230;28;19921;-81
2022/09/21 02:37:03;;;;;;;;;;;;;;;12.98;100.00;99919.66;5006575;28;19921;-83
2022/09/21 02:39:29;;;;;;;;;;;;;;;12.88;100.00;99913.59;5005158;28;19917;-82
2022/09/21 02:42:16;;;;;;;;;;;;;;;12.80;100.00;99913.50;5011457;28;19917;-83
2022/09/21 02:45:08;;;;;;;;;;;;;;;12.76;100.00;99912.16;5015303;28;20452;-83
2022/09/21 02:47:57;;;;;;;;;;;;;;;12.79;100.00;99919.78;5006081;28;19924;-85
2022/09/21 02:50:25;;;;;;;;;;;;;;;12.84;100.00;99920.19;5005789;28;20453;-85
2022/09/21 02:52:52;;;;;;;;;;;;;;;12.85;100.00;99927.13;5015621;28;19922;-87
2022/09/21 02:55:17;;;;;;;;;;;;;;;12.84;100.00;99931.59;5013732;28;19917;-87
2022/09/21 02:57:44;;;;;;;;;;;;;;;12.86;100.00;99934.09;5011224;28;19940;-86
2022/09/21 03:00:10;;;;;;;;;;;;;;;12.86;100.00;99928.81;4993627;28;19924;-87
2022/09/21 03:02:39;;;;;;;;;;;;;;;12.82;100.00;99927.44;5009863;28;20290;-87
2022/09/21 03:05:04;;;;;;;;;;;;;;;12.75;100.00;99931.66;5009453;28;19945;-86
2022/09/21 03:07:29;;;;;;;;;;;;;;;12.70;100.00;99935.59;5008502;28;19925;-84
2022/09/21 03:09:55;;;;;;;;;;;;;;;12.68;100.00;99936.69;5000449;28;19948;-85
2022/09/21 03:12:21;;;;;;;;;;;;;;;12.64;100.00;99930.88;5002299;28;19928;-80
2022/09/21 03:14:46;;;;;;;;;;;;;;;12.68;100.00;99939.34;5004080;28;19917;-80
2022/09/21 03:17:11;;;;;;;;;;;;;;;12.66;100.00;99939.47;5003953;28;19974;-79
2022/09/21 03:19:36;;;;;;;;;;;;;;;12.60;100.00;99934.81;5003019;28;19922;-81
2022/09/21 03:22:03;;;;;;;;;;;;;;;12.61;100.00;99941.75;5004582;28;19917;-81
2022/09/21 03:27:26;;;;;;;;;;;;;;;12.73;100.00;99943.22;4956446;28;20521;-82
2022/09/21 03:29:52;;;;;;;;;;;;;;;12.73;100.00;99951.16;4985035;28;20060;-81
2022/09/21 03:32:17;;;;;;;;;;;;;;;12.70;100.00;99946.19;5005803;28;20023;-81
2022/09/21 03:34:42;;;;;;;;;;;;;;;12.69;100.00;99944.50;5006628;28;19917;-81
2022/09/21 03:37:08;;;;;;;;;;;;;;;12.72;100.00;99948.69;5006136;28;20393;-80
2022/09/21 03:39:34;;;;;;;;;;;;;;;12.77;100.00;99950.88;4982741;28;20401;-80
2022/09/21 03:41:59;;;;;;;;;;;;;;;12.80;100.00;99950.59;5001102;28;20325;-80
2022/09/21 03:44:25;;;;;;;;;;;;;;;12.86;100.00;99955.28;5007393;28;20281;-81
2022/09/21 03:46:51;;;;;;;;;;;;;;;12.91;100.00;99964.47;5003660;28;20586;-78
2022/09/21 03:49:17;;;;;;;;;;;;;;;12.97;100.00;99965.69;5011765;28;19921;-79
2022/09/21 03:51:42;;;;;;;;;;;;;;;12.99;100.00;99966.38;5015697;28;19917;-81
2022/09/21 03:54:08;;;;;;;;;;;;;;;12.94;100.00;99960.69;5009521;28;20370;-81
2022/09/21 03:56:33;;;;;;;;;;;;;;;12.88;100.00;99963.94;5000047;28;19960;-81
2022/09/21 03:58:58;;;;;;;;;;;;;;;12.85;100.00;99973.00;5010170;28;19917;-81
2022/09/21 04:01:24;;;;;;;;;;;;;;;12.80;100.00;99980.53;5008974;28;19917;-82
2022/09/21 04:03:49;;;;;;;;;;;;;;;12.79;100.00;99975.38;5004792;28;19918;-82
2022/09/21 04:06:15;;;;;;;;;;;;;;;12.72;100.00;99970.69;5004070;28;19924;-83
2022/09/21 04:08:40;;;;;;;;;;;;;;;12.62;100.00;99979.66;5001732;28;19993;-83
2022/09/21 04:11:09;;;;;;;;;;;;;;;12.56;100.00;99978.41;5002477;28;20278;-82
2022/09/21 04:13:34;;;;;;;;;;;;;;;12.52;100.00;99979.69;5000686;28;20282;-80
2022/09/21 04:16:00;;;;;;;;;;;;;;;12.48;100.00;99975.69;5004642;28;19921;-81
2022/09/21 04:18:25;;;;;;;;;;;;;;;12.49;100.00;99985.25;5005589;28;20028;-81
2022/09/21 04:20:50;;;;;;;;;;;;;;;12.51;100.00;99987.78;5004750;28;20275;-79
2022/09/21 04:23:15;;;;;;;;;;;;;;;12.50;100.00;99986.94;4999601;28;19918;-78
2022/09/21 04:25:42;;;;;;;;;;;;;;;12.47;100.00;99997.81;5004639;28;19972;-80
2022/09/21 04:28:07;;;;;;;;;;;;;;;12.47;100.00;99989.88;5004105;28;20480;-80
2022/09/21 04:30:34;;;;;;;;;;;;;;;12.42;100.00;100000.06;5003316;28;20008;-81
2022/09/21 04:32:59;;;;;;;;;;;;;;;12.39;100.00;100000.34;5003816;28;19958;-80
2022/09/21 04:35:24;;;;;;;;;;;;;;;12.44;100.00;100002.56;5003096;28;19921;-81
2022/09/21 04:37:53;;;;;;;;;;;;;;;12.48;100.00;99998.66;5004424;28;19953;-81
2022/09/21 04:40:18;;;;;;;;;;;;;;;12.56;100.00;99996.94;4984935;28;19993;-82
2022/09/21 04:42:43;;;;;;;;;;;;;;;12.64;100.00;99999.72;5000556;28;20059;-81
2022/09/21 04:45:09;;;;;;;;;;;;;;;12.72;100.00;100010.41;5000263;28;20258;-82
2022/09/21 04:47:34;;;;;;;;;;;;;;;12.77;100.00;100009.97;5001381;28;19921;-82
2022/09/21 04:50:00;;;;;;;;;;;;;;;12.85;100.00;100017.19;5001552;28;19921;-82
2022/09/21 04:52:25;;;;;;;;;;;;;;;12.88;100.00;100016.91;4986554;28;19985;-82
2022/09/21 04:54:50;;;;;;;;;;;;;;;12.89;100.00;100008.81;5003645;28;19925;-81
2022/09/21 04:57:16;;;;;;;;;;;;;;;12.91;100.00;100011.28;5002554;28;19928;-82
2022/09/21 04:59:41;;;;;;;;;;;;;;;12.94;100.00;100021.63;5005123;28;20452;-82
2022/09/21 05:02:06;;;;;;;;;;;;;;;12.99;100.00;100019.34;4999899;28;19918;-82
2022/09/21 05:04:31;;;;;;;;;;;;;;;12.98;100.00;100022.97;5005299;28;19917;-82
2022/09/21 05:06:58;;;;;;;;;;;;;;;12.95;100.00;100016.19;4997609;28;20000;-85
2022/09/21 05:12:08;;;;;;;;;;;;;;;12.73;100.00;100025.31;4985417;28;19917;-80
2022/09/21 05:14:34;;;;;;;;;;;;;;;12.70;100.00;100020.31;4999574;28;19918;-82
2022/09/21 05:16:59;;;;;;;;;;;;;;;12.66;100.00;100028.69;5006348;28;19924;-85
2022/09/21 05:19:24;;;;;;;;;;;;;;;12.62;100.00;100038.72;5004156;28;19924;-84
2022/09/21 05:21:50;;;;;;;;;;;;;;;12.63;100.00;100035.09;5000320;28;19917;-77
2022/09/21 05:24:15;;;;;;;;;;;;;;;12.66;100.00;100040.09;5000704;28;20297;-76
2022/09/21 05:26:41;;;;;;;;;;;;;;;12.70;100.00;100046.78;4977858;28;20306;-74
2022/09/21 05:29:07;;;;;;;;;;;;;;;12.78;100.00;100043.44;5001626;28;20099;-75
2022/09/21 05:31:43;;;;;;;;;;;;;;;12.87;100.00;100053.16;4981958;28;20023;-74
2022/09/21 05:34:28;;;;;;;;;;;;;;;12.92;100.00;100047.41;5002914;28;19918;-74
2022/09/21 05:37:21;;;;;;;;;;;;;;;12.95;100.00;100050.63;5000898;28;20012;-73
2022/09/21 05:39:47;;;;;;;;;;;;;;;12.98;100.00;100046.81;4995561;28;19918;-75
2022/09/21 05:42:12;;;;;;;;;;;;;;;13.04;100.00;100049.72;4996490;28;20721;-74
2022/09/21 05:44:38;;;;;;;;;;;;;;;13.06;100.00;100046.94;4997909;28;20349;-76
2022/09/21 05:47:22;;;;;;;;;;;;;;;13.07;100.00;100053.91;5000340;28;19924;-78
2022/09/21 05:50:04;;;;;;;;;;;;;;;13.07;100.00;100060.03;4998049;28;19964;-79
2022/09/21 05:52:42;;;;;;;;;;;;;;;13.01;100.00;100055.34;4997519;28;19964;-77
2022/09/21 05:55:21;;;;;;;;;;;;;;;12.97;100.00;100066.34;4999496;28;19929;-78
2022/09/21 05:58:25;;;;;;;;;;;;;;;12.93;100.00;100060.50;4981341;28;19937;-77
2022/09/21 06:00:51;;;;;;;;;;;;;;;12.87;100.00;100078.78;4947832;28;19922;-77
2022/09/21 06:03:24;;;;;;;;;;;;;;;12.79;100.00;100076.84;4957996;28;20519;-74
2022/09/21 06:05:49;;;;;;;;;;;;;;;12.75;100.00;100077.28;4961599;28;20371;-77
2022/09/21 06:08:15;;;;;;;;;;;;;;;12.71;100.00;100096.13;4963147;28;19970;-76
2022/09/21 06:10:40;;;;;;;;;;;;;;;12.66;100.00;100090.41;4959371;28;19928;-77
2022/09/21 06:13:05;;;;;;;;;;;;;;;12.64;100.00;100095.03;4965315;28;19918;-77
2022/09/21 06:15:33;;;;;;;;;;;;;;;12.67;100.00;100100.03;4963873;28;19921;-77
2022/09/21 06:17:58;;;;;;;;;;;;;;;12.69;100.00;100098.09;4965096;28;19940;-78
2022/09/21 06:20:24;;;;;;;;;;;;;;;12.75;100.00;100095.84;4962454;28;20375;-77
2022/09/21 06:22:49;;;;;;;;;;;;;;;12.81;100.00;100095.25;4965831;28;20362;-77
2022/09/21 06:25:14;;;;;;;;;;;;;;;12.85;100.00;100091.34;4966225;28;20448;-79
2022/09/21 06:27:40;;;;;;;;;;;;;;;12.84;100.00;100089.69;4965275;28;20017;-78
2022/09/21 06:30:05;;;;;;;;;;;;;;;12.84;100.00;100090.50;4964666;28;19917;-79
2022/09/21 06:32:31;;;;;;;;;;;;;;;12.90;100.00;100092.56;4996324;28;20357;-79
2022/09/21 06:34:56;;;;;;;;;;;;;;;12.92;100.00;100090.63;5005552;28;20059;-78
2022/09/21 06:37:21;;;;;;;;;;;;;;;12.98;100.00;100095.34;5003243;28;19964;-78
2022/09/21 06:39:47;;;;;;;;;;;;;;;13.06;100.00;100089.34;5005244;28;19940;-80
2022/09/21 06:42:12;;;;;;;;;;;;;;;13.14;100.00;100092.09;5001818;28;19922;-77
2022/09/21 06:44:37;;;;;;;;;;;;;;;13.22;100.00;100094.88;4989529;28;19971;-79
2022/09/21 06:47:03;;;;;;;;;;;;;;;13.27;100.00;100097.06;5004758;28;19917;-80
2022/09/21 06:49:28;;;;;;;;;;;;;;;13.31;100.00;100104.56;5005677;28;19917;-79
2022/09/21 06:51:54;;;;;;;;;;;;;;;13.35;100.00;100108.63;5004469;28;20343;-80
2022/09/21 06:54:19;;;;;;;;;;;;;;;13.39;100.00;100117.94;5004402;28;19918;-80
2022/09/21 06:56:45;;;;;;;;;;;;;;;13.42;100.00;100117.66;5004918;28;19917;-77
2022/09/21 06:59:10;;;;;;;;;;;;;;;13.49;100.00;100118.72;5001742;28;19922;-79
2022/09/21 07:01:36;;;;;;;;;;;;;;;13.57;100.00;100114.50;5004127;28;19964;-79
2022/09/21 07:04:01;;;;;;;;;;;;;;;13.64;100.00;100110.28;4999719;28;19926;-79
2022/09/21 07:06:28;;;;;;;;;;;;;;;13.71;100.00;100106.88;5001348;28;20362;-79
2022/09/21 07:08:53;;;;;;;;;;;;;;;13.79;100.00;100108.75;5004298;28;19924;-79
2022/09/21 07:11:19;;;;;;;;;;;;;;;13.85;100.00;100113.47;5002536;28;19914;-76
2022/09/21 07:13:45;;;;;;;;;;;;;;;13.92;100.00;100114.53;5003338;28;19921;-77
2022/09/21 07:16:11;;;;;;;;;;;;;;;13.99;100.00;100115.63;5004782;28;19917;-78
2022/09/21 07:18:38;;;;;;;;;;;;;;;14.07;100.00;100112.22;5005134;28;19952;-79
2022/09/21 07:21:04;;;;;;;;;;;;;;;14.15;100.00;100105.16;5003485;28;19921;-79
2022/09/21 07:23:30;;;;;;;;;;;;;;;14.22;100.00;100108.03;5007417;28;19921;-79
2022/09/21 07:25:59;;;;;;;;;;;;;;;14.28;100.00;100115.38;5007403;28;20016;-78
2022/09/21 07:28:24;;;;;;;;;;;;;;;14.32;100.00;100122.88;5003480;28;19960;-78
2022/09/21 07:30:50;;;;;;;;;;;;;;;14.38;100.00;100115.31;5005929;28;19956;-78
2022/09/21 07:33:15;;;;;;;;;;;;;;;14.44;100.00;100120.84;4999008;28;20000;-79
2022/09/21 07:35:49;;;;;;;;;;;;;;;14.45;100.00;100127.00;5004140;28;19917;-79
2022/09/21 07:38:14;;;;;;;;;;;;;;;14.46;100.00;100129.50;5002875;28;19948;-78
2022/09/21 07:40:39;;;;;;;;;;;;;;;14.51;100.00;100142.31;5000660;28;20348;-79
2022/09/21 07:43:05;;;;;;;;;;;;;;;14.53;100.00;100141.19;5004105;28;19921;-79
2022/09/21 07:45:30;;;;;;;;;;;;;;;14.56;100.00;100145.34;5003615;28;19921;-80
2022/09/21 07:48:02;;;;;;;;;;;;;;;14.56;100.00;100145.34;5002891;28;20010;-79
2022/09/21 07:50:27;;;;;;;;;;;;;;;14.59;100.00;100150.38;5001766;28;19917;-79
2022/09/21 07:52:53;;;;;;;;;;;;;;;14.63;100.00;100151.72;5004931;28;19940;-80
2022/09/21 07:55:18;;;;;;;;;;;;;;;14.64;100.00;100154.22;4998014;28;20001;-76
2022/09/21 08:00:31;;;;;;;;;;;;;;;14.70;100.00;100163.41;5012330;28;19967;-79
2022/09/21 08:02:57;;;;;;;;;;;;;;;14.73;100.00;100168.38;5005470;28;19917;-78
2022/09/21 08:05:22;;;;;;;;;;;;;;;14.76;100.00;100170.75;5006708;28;19924;-78
2022/09/21 08:07:47;;;;;;;;;;;;;;;14.83;100.00;100174.47;5003717;28;19968;-78
2022/09/21 08:10:13;;;;;;;;;;;;;;;14.90;100.00;100172.03;5007329;28;19918;-78
2022/09/21 08:12:38;;;;;;;;;;;;;;;14.97;100.00;100175.72;5004797;28;19917;-79
2022/09/21 08:15:04;;;;;;;;;;;;;;;15.03;100.00;100170.59;5000712;28;19917;-76
2022/09/21 08:17:29;;;;;;;;;;;;;;;15.07;100.00;100166.66;5002429;28;19956;-78
2022/09/21 08:19:55;;;;;;;;;;;;;;;15.13;100.00;100176.69;5010226;28;20479;-77
2022/09/21 08:22:24;;;;;;;;;;;;;;;15.16;100.00;100186.97;5004606;28;19924;-78
2022/09/21 08:24:51;;;;;;;;;;;;;;;15.18;100.00;100180.69;4999045;28;19979;-77
2022/09/21 08:27:18;;;;;;;;;;;;;;;15.18;100.00;100183.34;5002657;28;20600;-78
2022/09/21 08:29:44;;;;;;;;;;;;;;;15.19;100.00;100185.00;5004681;28;20331;-78
2022/09/21 08:32:10;;;;;;;;;;;;;;;15.21;100.00;100188.31;5002011;28;19918;-78
2022/09/21 08:34:35;;;;;;;;;;;;;;;15.19;100.00;100188.50;5001267;28;19921;-78
2022/09/21 08:37:00;;;;;;;;;;;;;;;15.20;100.00;100192.81;5001643;28;19924;-77
2022/09/21 08:39:26;;;;;;;;;;;;;;;15.22;100.00;100197.97;4980212;28;20047;-77
2022/09/21 08:41:51;;;;;;;;;;;;;;;15.24;100.00;100201.31;5002925;28;19929;-79
2022/09/21 08:44:22;;;;;;;;;;;;;;;15.26;100.00;100202.81;5004528;28;19925;-78
2022/09/21 08:46:53;;;;;;;;;;;;;;;15.30;100.00;100198.03;5003196;28;19918;-77
2022/09/21 08:49:21;;;;;;;;;;;;;;;15.36;100.00;100202.72;4998496;28;19917;-77
2022/09/21 08:51:53;;;;;;;;;;;;;;;15.38;100.00;100206.03;5003310;28;20004;-78
2022/09/21 08:54:24;;;;;;;;;;;;;;;15.41;100.00;100208.41;5001426;28;20009;-77
2022/09/21 08:56:49;;;;;;;;;;;;;;;15.42;100.00;100212.72;4999838;28;19917;-77
2022/09/21 08:59:15;;;;;;;;;;;;;;;15.40;100.00;100214.69;4999828;28;20362;-77
2022/09/21 09:01:49;;;;;;;;;;;;;;;15.31;100.00;100216.50;5004602;28;19924;-77
2022/09/21 09:04:29;;;;;;;;;;;;;;;15.29;100.00;100218.47;5005412;28;19964;-77
2022/09/21 09:07:08;;;;;;;;;;;;;;;15.29;100.00;100221.13;5005331;28;20016;-77
2022/09/21 09:09:33;;;;;;;;;;;;;;;15.33;100.00;100221.63;5001491;28;19921;-78
2022/09/21 09:12:16;;;;;;;;;;;;;;;15.32;100.00;100227.94;5002238;28;19924;-77
2022/09/21 09:14:55;;;;;;;;;;;;;;;15.27;100.00;100231.06;5000961;28;20345;-77
2022/09/21 09:17:39;;;;;;;;;;;;;;;15.23;100.00;100234.22;5000923;28;20379;-77
2022/09/21 09:20:18;;;;;;;;;;;;;;;15.15;100.00;100233.16;5001943;28;19918;-77
2022/09/21 09:22:49;;;;;;;;;;;;;;;15.15;100.00;100227.84;5005014;28;20103;-78
2022/09/21 09:25:16;;;;;;;;;;;;;;;15.19;100.00;100235.53;5000184;28;19925;-77
2022/09/21 09:27:43;;;;;;;;;;;;;;;15.19;100.00;100238.19;5002482;28;20301;-77
2022/09/21 09:30:08;;;;;;;;;;;;;;;15.20;100.00;100229.22;4998598;28;19917;-76
2022/09/21 09:32:41;;;;;;;;;;;;;;;15.22;100.00;100237.84;4998492;28;19917;-77
2022/09/21 09:35:15;;;;;;;;;;;;;;;15.19;100.00;100240.84;5002027;28;19917;-78
2022/09/21 09:37:41;;;;;;;;;;;;;;;15.21;100.00;100236.19;5005804;28;19921;-77
2022/09/21 09:40:07;;;;;;;;;;;;;;;15.28;100.00;100242.53;5002147;28;19924;-78
2022/09/21 09:42:51;;;;;;;;;;;;;;;15.30;100.00;100245.91;5009378;28;20011;-78
2022/09/21 09:45:23;;;;;;;;;;;;;;;15.32;100.00;100236.75;4988615;28;19976;-77
2022/09/21 09:48:05;;;;;;;;;;;;;;;15.38;100.00;100237.94;5008188;28;19996;-79
2022/09/21 09:50:35;;;;;;;;;;;;;;;15.43;100.00;100233.03;5000941;28;20389;-79
2022/09/21 09:53:04;;;;;;;;;;;;;;;15.46;100.00;100240.66;5002505;28;19921;-78
2022/09/21 09:55:38;;;;;;;;;;;;;;;15.48;100.00;100244.00;5003527;28;20246;-78
2022/09/21 09:58:03;;;;;;;;;;;;;;;15.44;100.00;100243.47;5003090;28;20008;-78
2022/09/21 10:00:29;;;;;;;;;;;;;;;15.49;100.00;100235.06;5004628;28;20438;-78
2022/09/21 10:02:58;;;;;;;;;;;;;;;15.57;100.00;100237.78;5005669;28;19988;-79
2022/09/21 10:05:34;;;;;;;;;;;;;;;15.63;100.00;100234.47;5006284;28;19925;-79
2022/09/21 10:07:59;;;;;;;;;;;;;;;15.71;100.00;100239.84;5005928;28;20577;-78
2022/09/21 10:10:27;;;;;;;;;;;;;;;15.75;100.00;100235.88;5003706;28;19917;-78
2022/09/21 10:12:54;;;;;;;;;;;;;;;15.79;100.00;100242.53;5005237;28;20277;-78
2022/09/21 10:15:22;;;;;;;;;;;;;;;15.84;100.00;100240.25;5003859;28;20298;-79
2022/09/21 10:17:55;;;;;;;;;;;;;;;15.90;100.00;100244.91;5006399;28;19925;-78
2022/09/21 10:20:21;;;;;;;;;;;;;;;15.96;100.00;100244.25;5003398;28;19925;-76
2022/09/21 10:22:51;;;;;;;;;;;;;;;16.03;100.00;100243.63;5003680;28;19918;-76
2022/09/21 10:25:18;;;;;;;;;;;;;;;16.10;100.00;100244.66;5000837;28;19925;-78
2022/09/21 10:27:46;;;;;;;;;;;;;;;16.17;100.00;100245.69;5006173;28;19924;-78
2022/09/21 10:30:29;;;;;;;;;;;;;;;16.20;100.00;100246.19;5003519;28;19918;-78
2022/09/21 10:32:55;;;;;;;;;;;;;;;16.22;100.00;100249.53;5003395;28;20026;-79
2022/09/21 10:35:21;;;;;;;;;;;;;;;16.25;100.00;100251.88;5007980;28;19917;-78
2022/09/21 10:37:53;;;;;;;;;;;;;;;16.26;100.00;100248.19;5007601;28;19917;-76
2022/09/21 10:40:18;;;;;;;;;;;;;;;16.32;100.00;100247.53;4979479;28;19918;-77
2022/09/21 10:42:44;;;;;;;;;;;;;;;16.35;100.00;100254.38;4985295;28;19929;-76
2022/09/21 10:45:13;;;;;;;;;;;;;;;16.36;100.00;100262.22;4983723;28;19969;-78
2022/09/21 10:47:45;;;;;;;;;;;;;;;16.40;100.00;100262.72;4986421;28;19924;-78
2022/09/21 10:50:22;;;;;;;;;;;;;;;16.37;100.00;100266.53;4982036;28;19944;-79
2022/09/21 10:52:47;;;;;;;;;;;;;;;16.32;100.00;100260.84;4986518;28;19918;-78
2022/09/21 10:55:21;;;;;;;;;;;;;;;16.26;100.00;100260.66;4982733;28;19924;-78
2022/09/21 10:57:47;;;;;;;;;;;;;;;16.23;100.00;100263.66;4987027;28;19917;-78
2022/09/21 11:00:24;;;;;;;;;;;;;;;16.24;100.00;100257.34;4987304;28;20044;-78
2022/09/21 11:02:49;;;;;;;;;;;;;;;16.30;100.00;100256.72;4986036;28;20275;-78
2022/09/21 11:05:17;;;;;;;;;;;;;;;16.39;100.00;100259.22;4983067;28;19918;-78
2022/09/21 11:07:58;;;;;;;;;;;;;;;16.46;100.00;100267.38;4983752;28;19929;-77
2022/09/21 11:10:28;;;;;;;;;;;;;;;16.51;100.00;100259.75;4981150;28;19947;-78
2022/09/21 11:12:59;;;;;;;;;;;;;;;16.54;100.00;100254.09;4984735;28;19918;-79
2022/09/21 11:15:39;;;;;;;;;;;;;;;16.58;100.00;100254.59;4980720;28;19921;-78
2022/09/21 11:18:13;;;;;;;;;;;;;;;16.62;100.00;100256.78;4984556;28;19917;-78
2022/09/21 11:20:38;;;;;;;;;;;;;;;16.75;100.00;100259.81;4983156;28;20289;-77
2022/09/21 11:23:04;;;;;;;;;;;;;;;16.86;100.00;100263.97;4984661;28;20008;-77
2022/09/21 11:25:31;;;;;;;;;;;;;;;16.85;100.00;100258.84;4977738;28;19960;-76
2022/09/21 11:28:29;;;;;;;;;;;;;;;16.87;100.00;100254.16;4972396;28;19922;-75
2022/09/21 11:31:04;;;;;;;;;;;;;;;16.93;100.00;100253.47;4950834;28;19925;-76
2022/09/21 11:33:44;;;;;;;;;;;;;;;16.91;100.00;100250.97;4986727;28;19917;-76
2022/09/21 11:36:22;;;;;;;;;;;;;;;16.95;100.00;100246.16;4985525;28;19921;-77
2022/09/21 11:39:05;;;;;;;;;;;;;;;16.99;100.00;100252.81;4987773;28;19918;-75
2022/09/21 11:41:34;;;;;;;;;;;;;;;17.02;100.00;100247.16;5003230;28;19972;-75
2022/09/21 11:44:00;;;;;;;;;;;;;;;17.03;100.00;100254.97;5006435;28;19921;-76
2022/09/21 11:46:28;;;;;;;;;;;;;;;17.10;99.55;100244.47;5006669;28;19921;-75
2022/09/21 11:48:55;;;;;;;;;;;;;;;17.13;99.47;100250.31;5002005;28;19925;-77
2022/09/21 11:51:39;;;;;;;;;;;;;;;17.16;99.85;100251.81;5007405;28;19925;-75
2022/09/21 11:54:11;;;;;;;;;;;;;;;17.20;99.17;100250.47;4989452;28;20021;-77
2022/09/21 11:56:51;;;;;;;;;;;;;;;17.28;98.72;100245.13;5005373;28;19937;-76
2022/09/21 11:59:29;;;;;;;;;;;;;;;17.36;98.89;100245.13;4986050;28;20020;-75
2022/09/21 12:02:16;;;;;;;;;;;;;;;17.46;98.15;100244.94;5007544;28;20366;-76
2022/09/21 12:04:54;;;;;;;;;;;;;;;17.49;97.08;100242.78;4990481;28;19968;-75
2022/09/21 12:07:19;;;;;;;;;;;;;;;17.55;97.02;100246.59;5006199;28;19979;-75
2022/09/21 12:09:45;;;;;;;;;;;;;;;17.62;96.63;100239.56;5007243;28;20346;-75
2022/09/21 12:12:15;;;;;;;;;;;;;;;17.68;95.15;100240.72;5007169;28;19993;-77
2022/09/21 12:14:49;;;;;;;;;;;;;;;17.69;94.86;100234.38;5008343;28;19921;-73
2022/09/21 12:17:14;;;;;;;;;;;;;;;17.72;94.09;100240.22;5006201;28;19917;-78
2022/09/21 12:19:39;;;;;;;;;;;;;;;17.65;93.28;100227.75;5007348;28;19917;-77
2022/09/21 12:22:11;;;;;;;;;;;;;;;17.64;93.64;100231.41;5007348;28;19921;-75
2022/09/21 12:24:48;;;;;;;;;;;;;;;17.73;93.70;100225.06;5002210;28;20456;-76
2022/09/21 12:27:28;;;;;;;;;;;;;;;17.80;93.30;100226.00;5006026;28;19913;-77
2022/09/21 12:30:15;;;;;;;;;;;;;;;17.88;92.81;100228.66;5003216;28;19917;-77
2022/09/21 12:32:46;;;;;;;;;;;;;;;17.93;92.02;100220.94;5004204;28;19964;-75
2022/09/21 12:35:32;;;;;;;;;;;;;;;18.04;91.99;100219.72;5004030;28;20118;-73
2022/09/21 12:38:16;;;;;;;;;;;;;;;18.12;90.85;100220.53;5005928;28;19996;-75
2022/09/21 12:40:42;;;;;;;;;;;;;;;18.19;90.53;100218.81;5004333;28;19952;-74
2022/09/21 12:43:26;;;;;;;;;;;;;;;18.25;90.01;100212.78;5007194;28;19925;-74